Time;durP1;ratioP1;P1;durP2;ratioP2;P2;SDS_P1;SDS_P2;PMS_P1;PMS_P2;Temp;Humidity;BMP_temperature;BMP_pressure;BME280_temperature;BME280_humidity;BME280_pressure;Samples;Min_cycle;Max_cycle;Signal;HPM_P1;HPM_P2
2022/02/18 00:00:14;;;;;;;;;35.75;30.50;;;;;;;;5054901;28;51184;-55
2022/02/18 00:02:59;;;;;;;;;39.75;32.50;;;;;;;;5055043;28;51312;-51
2022/02/18 00:05:44;;;;;;;;;39.50;31.75;;;;;;;;5054001;28;51135;-51
2022/02/18 00:08:30;;;;;;;;;39.50;31.75;;;;;;;;5042758;28;51302;-53
2022/02/18 00:11:25;;;;;;;;;38.50;30.00;;;;;;;;5043190;28;51294;-54
2022/02/18 00:14:20;;;;;;;;;51.50;38.00;;;;;;;;5046179;28;51637;-50
2022/02/18 00:17:05;;;;;;;;;39.50;28.25;;;;;;;;5044473;28;51207;-51
2022/02/18 00:19:50;;;;;;;;;34.50;26.50;;;;;;;;5049192;28;51177;-55
2022/02/18 00:22:35;;;;;;;;;29.00;24.25;;;;;;;;5050495;28;51121;-55
2022/02/18 00:25:23;;;;;;;;;36.75;30.50;;;;;;;;5044246;28;51480;-52
2022/02/18 00:28:09;;;;;;;;;32.25;28.00;;;;;;;;5040967;28;51160;-56
2022/02/18 00:31:03;;;;;;;;;35.75;27.25;;;;;;;;5043218;28;51682;-55
2022/02/18 00:33:50;;;;;;;;;34.00;30.25;;;;;;;;5042028;28;51197;-55
2022/02/18 00:36:36;;;;;;;;;37.25;28.75;;;;;;;;5042799;28;51228;-54
2022/02/18 00:39:21;;;;;;;;;35.00;28.25;;;;;;;;5047404;28;51416;-56
2022/02/18 00:42:09;;;;;;;;;29.50;24.25;;;;;;;;5041366;28;51879;-51
2022/02/18 00:45:04;;;;;;;;;28.00;25.75;;;;;;;;5043654;28;51320;-55
2022/02/18 00:47:49;;;;;;;;;33.00;25.25;;;;;;;;5042875;28;51104;-56
2022/02/18 00:50:35;;;;;;;;;28.25;24.00;;;;;;;;5041497;28;51486;-54
2022/02/18 00:53:19;;;;;;;;;33.50;29.25;;;;;;;;5041686;28;51075;-55
2022/02/18 00:56:08;;;;;;;;;33.75;28.25;;;;;;;;5043534;28;50978;-50
2022/02/18 00:58:55;;;;;;;;;39.00;29.00;;;;;;;;5049967;28;51175;-54
2022/02/18 01:01:40;;;;;;;;;31.50;27.50;;;;;;;;5047130;28;51057;-52
2022/02/18 01:04:24;;;;;;;;;34.75;29.50;;;;;;;;5046871;28;51628;-51
2022/02/18 01:07:08;;;;;;;;;26.25;20.25;;;;;;;;5041604;28;51178;-52
2022/02/18 01:09:54;;;;;;;;;33.50;26.75;;;;;;;;5041537;28;52607;-55
2022/02/18 01:12:42;;;;;;;;;31.75;23.25;;;;;;;;5042267;28;51025;-53
2022/02/18 01:15:47;;;;;;;;;30.75;26.25;;;;;;;;5037590;28;51406;-55
2022/02/18 01:18:35;;;;;;;;;39.25;28.50;;;;;;;;5044547;28;51141;-55
2022/02/18 01:21:21;;;;;;;;;34.50;28.50;;;;;;;;5040453;28;51258;-53
2022/02/18 01:24:07;;;;;;;;;36.25;23.50;;;;;;;;5042747;28;51146;-54
2022/02/18 01:27:06;;;;;;;;;31.00;27.50;;;;;;;;5040265;28;51104;-54
2022/02/18 01:29:50;;;;;;;;;28.75;25.00;;;;;;;;5040694;28;51326;-50
2022/02/18 01:32:36;;;;;;;;;28.25;26.00;;;;;;;;5044998;28;51817;-53
2022/02/18 01:35:29;;;;;;;;;32.75;26.25;;;;;;;;5049580;28;51088;-55
2022/02/18 01:38:14;;;;;;;;;35.00;26.75;;;;;;;;5042442;28;51191;-56
2022/02/18 01:41:01;;;;;;;;;32.75;25.00;;;;;;;;5041914;28;51626;-56
2022/02/18 01:43:53;;;;;;;;;32.00;25.50;;;;;;;;5039450;28;51187;-55
2022/02/18 01:46:42;;;;;;;;;29.50;25.25;;;;;;;;5040865;28;51046;-57
2022/02/18 01:49:26;;;;;;;;;37.75;31.75;;;;;;;;5051752;28;51106;-54
2022/02/18 01:52:20;;;;;;;;;36.00;27.50;;;;;;;;5041403;28;51142;-56
2022/02/18 01:55:10;;;;;;;;;35.00;29.25;;;;;;;;5040457;28;51083;-53
2022/02/18 01:58:03;;;;;;;;;32.50;24.00;;;;;;;;5047581;28;51301;-52
2022/02/18 02:01:13;;;;;;;;;37.50;26.50;;;;;;;;5043757;28;51272;-56
2022/02/18 02:03:58;;;;;;;;;30.25;27.00;;;;;;;;5037529;28;51270;-57
2022/02/18 02:06:45;;;;;;;;;31.25;27.50;;;;;;;;5040373;28;51135;-56
2022/02/18 02:09:42;;;;;;;;;31.75;28.50;;;;;;;;5039634;28;51101;-57
2022/02/18 02:12:29;;;;;;;;;28.00;25.75;;;;;;;;5041361;28;51563;-55
2022/02/18 02:15:16;;;;;;;;;36.75;25.00;;;;;;;;5040610;28;51103;-55
2022/02/18 02:18:01;;;;;;;;;31.00;25.25;;;;;;;;5051889;28;51111;-54
2022/02/18 02:20:48;;;;;;;;;32.25;27.00;;;;;;;;5042448;28;51399;-54
2022/02/18 02:23:35;;;;;;;;;32.75;24.50;;;;;;;;5045234;28;51170;-56
2022/02/18 02:26:31;;;;;;;;;30.25;28.50;;;;;;;;5038652;28;51128;-56
2022/02/18 02:29:16;;;;;;;;;39.50;30.50;;;;;;;;5049574;28;50984;-57
2022/02/18 02:32:01;;;;;;;;;35.50;28.25;;;;;;;;5043660;28;51341;-54
2022/02/18 02:34:47;;;;;;;;;35.50;26.25;;;;;;;;5043748;28;51207;-54
2022/02/18 02:37:31;;;;;;;;;36.00;26.00;;;;;;;;5044199;28;51114;-51
2022/02/18 02:40:37;;;;;;;;;21.00;18.25;;;;;;;;5029873;28;51130;-55
2022/02/18 02:43:20;;;;;;;;;27.50;23.00;;;;;;;;5043383;28;51113;-54
2022/02/18 02:46:05;;;;;;;;;34.00;27.50;;;;;;;;5038633;28;51192;-60
2022/02/18 02:49:10;;;;;;;;;36.75;24.75;;;;;;;;5033542;28;51266;-57
2022/02/18 02:51:56;;;;;;;;;30.75;28.50;;;;;;;;5049332;28;51159;-55
2022/02/18 02:54:46;;;;;;;;;22.50;21.25;;;;;;;;5038757;28;51068;-50
2022/02/18 02:57:32;;;;;;;;;35.25;28.50;;;;;;;;5044713;28;51009;-56
2022/02/18 03:00:17;;;;;;;;;32.25;27.25;;;;;;;;5042817;28;51505;-57
2022/02/18 03:03:04;;;;;;;;;29.00;23.75;;;;;;;;5044383;28;51069;-54
2022/02/18 03:05:51;;;;;;;;;38.00;27.25;;;;;;;;5043851;28;51183;-56
2022/02/18 03:08:45;;;;;;;;;33.00;27.50;;;;;;;;5043642;28;51137;-56
2022/02/18 03:11:31;;;;;;;;;37.25;30.25;;;;;;;;5043129;28;51155;-55
2022/02/18 03:14:16;;;;;;;;;31.75;26.50;;;;;;;;5027304;28;51143;-54
2022/02/18 03:17:01;;;;;;;;;28.50;24.50;;;;;;;;5042075;28;51425;-56
2022/02/18 03:19:45;;;;;;;;;29.50;28.75;;;;;;;;5043498;28;51072;-57
2022/02/18 03:22:30;;;;;;;;;39.00;29.00;;;;;;;;5042668;28;51155;-56
2022/02/18 03:25:41;;;;;;;;;33.50;26.25;;;;;;;;5044027;28;51088;-56
2022/02/18 03:28:35;;;;;;;;;36.00;28.50;;;;;;;;5042411;28;51100;-54
2022/02/18 03:31:19;;;;;;;;;38.75;29.25;;;;;;;;5043579;28;51137;-56
2022/02/18 03:34:03;;;;;;;;;35.25;29.00;;;;;;;;5043706;28;51143;-55
2022/02/18 03:36:50;;;;;;;;;36.25;31.00;;;;;;;;5048650;28;51134;-55
2022/02/18 03:39:48;;;;;;;;;34.25;27.50;;;;;;;;5043502;28;51050;-53
2022/02/18 03:42:46;;;;;;;;;36.00;27.75;;;;;;;;5043668;28;51135;-54
2022/02/18 03:45:32;;;;;;;;;31.00;27.50;;;;;;;;5047622;28;51148;-54
2022/02/18 03:48:17;;;;;;;;;35.50;27.00;;;;;;;;5042365;28;51583;-52
2022/02/18 03:51:03;;;;;;;;;32.25;25.00;;;;;;;;5049018;28;51620;-52
2022/02/18 03:53:49;;;;;;;;;32.75;26.75;;;;;;;;5050346;28;51317;-53
2022/02/18 03:56:34;;;;;;;;;32.25;29.50;;;;;;;;5049763;28;51055;-57
2022/02/18 03:59:21;;;;;;;;;33.75;30.00;;;;;;;;5051044;28;51375;-53
2022/02/18 04:02:09;;;;;;;;;33.50;28.00;;;;;;;;5046465;28;51095;-55
2022/02/18 04:04:58;;;;;;;;;33.75;23.75;;;;;;;;5043786;28;51710;-54
2022/02/18 04:07:48;;;;;;;;;33.75;30.00;;;;;;;;5043794;28;51534;-55
2022/02/18 04:10:36;;;;;;;;;31.75;28.00;;;;;;;;5041078;28;51175;-54
2022/02/18 04:13:20;;;;;;;;;35.25;27.25;;;;;;;;5047814;28;51586;-57
2022/02/18 04:16:06;;;;;;;;;35.50;29.25;;;;;;;;5042259;28;51243;-57
2022/02/18 04:18:51;;;;;;;;;33.25;29.00;;;;;;;;5047157;28;51704;-58
2022/02/18 04:21:36;;;;;;;;;29.75;24.00;;;;;;;;5047325;28;51161;-53
2022/02/18 04:24:21;;;;;;;;;27.75;27.50;;;;;;;;5043840;28;51130;-51
2022/02/18 04:27:07;;;;;;;;;36.00;29.75;;;;;;;;5042164;28;51155;-54
2022/02/18 04:30:03;;;;;;;;;32.25;27.50;;;;;;;;5041717;28;51640;-52
2022/02/18 04:32:47;;;;;;;;;38.00;32.25;;;;;;;;5047401;28;51229;-52
2022/02/18 04:35:31;;;;;;;;;41.50;29.50;;;;;;;;5044016;28;51135;-53
2022/02/18 04:38:17;;;;;;;;;38.50;29.75;;;;;;;;5041792;28;51188;-52
2022/02/18 04:41:02;;;;;;;;;32.00;28.25;;;;;;;;5042806;28;51094;-55
2022/02/18 04:43:47;;;;;;;;;40.00;28.75;;;;;;;;5041438;28;51877;-51
2022/02/18 04:46:32;;;;;;;;;34.00;28.00;;;;;;;;5045150;28;51210;-53
2022/02/18 04:49:17;;;;;;;;;39.50;30.50;;;;;;;;5051411;28;51155;-52
2022/02/18 04:52:04;;;;;;;;;36.00;31.00;;;;;;;;5028471;28;51180;-54
2022/02/18 04:54:53;;;;;;;;;28.50;26.25;;;;;;;;5007895;28;51527;-51
2022/02/18 04:57:44;;;;;;;;;33.00;27.75;;;;;;;;5000789;28;51135;-49
2022/02/18 05:00:50;;;;;;;;;39.50;32.00;;;;;;;;5009787;28;51231;-54
2022/02/18 05:03:35;;;;;;;;;36.00;29.25;;;;;;;;5012669;28;51403;-53
2022/02/18 05:06:19;;;;;;;;;35.75;29.25;;;;;;;;5013159;28;51238;-50
2022/02/18 05:09:06;;;;;;;;;32.25;29.00;;;;;;;;5012631;28;51645;-55
2022/02/18 05:11:51;;;;;;;;;31.00;25.50;;;;;;;;4999296;28;51106;-49
2022/02/18 05:14:39;;;;;;;;;33.25;28.25;;;;;;;;5012617;28;51452;-55
2022/02/18 05:17:24;;;;;;;;;31.25;27.50;;;;;;;;5006805;28;51194;-52
2022/02/18 05:20:10;;;;;;;;;34.75;30.50;;;;;;;;5013162;28;51458;-52
2022/02/18 05:22:54;;;;;;;;;41.75;28.75;;;;;;;;4999899;28;51257;-53
2022/02/18 05:25:40;;;;;;;;;30.25;27.75;;;;;;;;5003664;28;51543;-52
2022/02/18 05:28:32;;;;;;;;;38.50;30.00;;;;;;;;4997379;28;51650;-52
2022/02/18 05:31:33;;;;;;;;;27.50;25.50;;;;;;;;4997555;28;51191;-53
2022/02/18 05:34:39;;;;;;;;;34.25;28.25;;;;;;;;5003868;28;52314;-55
2022/02/18 05:37:24;;;;;;;;;32.50;28.75;;;;;;;;4997938;28;51411;-53
2022/02/18 05:40:11;;;;;;;;;34.50;28.50;;;;;;;;4999195;28;51488;-52
2022/02/18 05:42:56;;;;;;;;;37.50;30.00;;;;;;;;4996653;28;51281;-52
2022/02/18 05:45:43;;;;;;;;;34.00;26.25;;;;;;;;5001055;28;51579;-55
2022/02/18 05:48:40;;;;;;;;;31.75;27.00;;;;;;;;4996649;28;51137;-49
2022/02/18 05:51:36;;;;;;;;;38.25;28.25;;;;;;;;5026864;28;51167;-53
2022/02/18 05:54:22;;;;;;;;;31.00;29.25;;;;;;;;5038752;28;51119;-54
2022/02/18 05:57:13;;;;;;;;;35.00;29.00;;;;;;;;5038868;28;51096;-54
2022/02/18 06:00:10;;;;;;;;;38.25;33.00;;;;;;;;5039134;28;51496;-50
2022/02/18 06:03:08;;;;;;;;;33.25;26.75;;;;;;;;5051581;28;51120;-53
2022/02/18 06:05:55;;;;;;;;;34.25;28.50;;;;;;;;5042512;28;51458;-53
2022/02/18 06:08:39;;;;;;;;;33.25;27.25;;;;;;;;5058941;28;51188;-54
2022/02/18 06:11:23;;;;;;;;;38.25;28.75;;;;;;;;5058425;28;51226;-54
2022/02/18 06:14:10;;;;;;;;;38.25;30.25;;;;;;;;5054831;28;51162;-53
2022/02/18 06:17:09;;;;;;;;;35.00;26.25;;;;;;;;5039071;28;51105;-53
2022/02/18 06:19:55;;;;;;;;;37.75;29.25;;;;;;;;5038712;28;51102;-50
2022/02/18 06:22:51;;;;;;;;;34.25;30.50;;;;;;;;5039015;28;51091;-55
2022/02/18 06:25:37;;;;;;;;;31.25;29.00;;;;;;;;5038905;28;51744;-52
2022/02/18 06:28:22;;;;;;;;;37.25;27.75;;;;;;;;5038163;28;51222;-53
2022/02/18 06:31:08;;;;;;;;;29.00;28.00;;;;;;;;5039406;28;51162;-52
2022/02/18 06:33:56;;;;;;;;;39.75;30.50;;;;;;;;5038637;28;51148;-52
2022/02/18 06:37:05;;;;;;;;;31.75;30.00;;;;;;;;5040958;28;51183;-52
2022/02/18 06:39:55;;;;;;;;;34.25;30.25;;;;;;;;5038613;28;51087;-55
2022/02/18 06:42:42;;;;;;;;;39.25;30.75;;;;;;;;5047500;28;51162;-52
2022/02/18 06:45:27;;;;;;;;;34.50;28.00;;;;;;;;5047868;28;51657;-54
2022/02/18 06:48:15;;;;;;;;;40.25;30.75;;;;;;;;5038549;28;51152;-55
2022/02/18 06:51:01;;;;;;;;;40.75;30.50;;;;;;;;5038756;28;51577;-51
2022/02/18 06:53:46;;;;;;;;;36.00;27.75;;;;;;;;5041365;28;51334;-56
2022/02/18 06:56:31;;;;;;;;;39.00;31.75;;;;;;;;5044659;28;51420;-53
2022/02/18 06:59:17;;;;;;;;;38.00;28.50;;;;;;;;5046279;28;51183;-52
2022/02/18 07:02:02;;;;;;;;;31.75;25.25;;;;;;;;5048780;28;51541;-52
2022/02/18 07:05:06;;;;;;;;;37.25;31.00;;;;;;;;5039463;28;51182;-53
2022/02/18 07:08:13;;;;;;;;;31.75;29.25;;;;;;;;5038894;28;51095;-52
2022/02/18 07:11:10;;;;;;;;;28.50;28.00;;;;;;;;5036093;28;51573;-51
2022/02/18 07:13:54;;;;;;;;;35.00;27.50;;;;;;;;5035997;28;51202;-44
2022/02/18 07:16:45;;;;;;;;;35.25;27.50;;;;;;;;5037677;28;51469;-49
2022/02/18 07:19:33;;;;;;;;;40.75;31.50;;;;;;;;5047872;28;51125;-50
2022/02/18 07:22:18;;;;;;;;;35.00;31.25;;;;;;;;5042549;28;51314;-48
2022/02/18 07:25:14;;;;;;;;;35.25;29.75;;;;;;;;5022382;28;51208;-48
2022/02/18 07:27:58;;;;;;;;;41.75;31.75;;;;;;;;5035446;28;51698;-48
2022/02/18 07:30:49;;;;;;;;;33.00;29.00;;;;;;;;5043466;28;51102;-47
2022/02/18 07:33:34;;;;;;;;;36.25;30.50;;;;;;;;5036870;28;51203;-48
2022/02/18 07:36:18;;;;;;;;;29.00;28.00;;;;;;;;5038246;28;51441;-48
2022/02/18 07:39:04;;;;;;;;;34.00;29.00;;;;;;;;5036732;28;51114;-47
2022/02/18 07:41:51;;;;;;;;;33.75;30.00;;;;;;;;5042118;28;51107;-50
2022/02/18 07:44:36;;;;;;;;;37.25;27.75;;;;;;;;5044963;28;51083;-44
2022/02/18 07:47:23;;;;;;;;;40.25;29.75;;;;;;;;5042743;28;51544;-47
2022/02/18 07:50:13;;;;;;;;;33.25;29.50;;;;;;;;5038169;28;51314;-50
2022/02/18 07:53:04;;;;;;;;;28.75;27.00;;;;;;;;5042182;28;51685;-46
2022/02/18 07:55:57;;;;;;;;;30.75;24.75;;;;;;;;5043193;28;51170;-48
2022/02/18 07:59:04;;;;;;;;;24.75;20.75;;;;;;;;5044857;28;51596;-47
2022/02/18 08:01:53;;;;;;;;;34.50;27.75;;;;;;;;5060362;28;51110;-48
2022/02/18 08:04:50;;;;;;;;;21.50;20.75;;;;;;;;5045784;28;51138;-49
2022/02/18 08:07:36;;;;;;;;;31.00;28.75;;;;;;;;5039605;28;51281;-48
2022/02/18 08:10:22;;;;;;;;;31.50;23.75;;;;;;;;5042664;28;51214;-48
2022/02/18 08:13:08;;;;;;;;;24.00;22.50;;;;;;;;5040316;28;51109;-45
2022/02/18 08:15:52;;;;;;;;;28.75;27.00;;;;;;;;5040765;28;51041;-48
2022/02/18 08:18:39;;;;;;;;;36.75;28.25;;;;;;;;5040679;28;51037;-46
2022/02/18 08:21:23;;;;;;;;;37.75;26.75;;;;;;;;5040875;28;51147;-47
2022/02/18 08:24:08;;;;;;;;;25.50;23.75;;;;;;;;5046188;28;51080;-46
2022/02/18 08:26:53;;;;;;;;;34.00;25.50;;;;;;;;5042821;28;51160;-48
2022/02/18 08:29:37;;;;;;;;;30.75;25.75;;;;;;;;5041671;28;51145;-48
2022/02/18 08:32:22;;;;;;;;;28.50;25.75;;;;;;;;5040357;28;51251;-47
2022/02/18 08:35:06;;;;;;;;;31.00;26.00;;;;;;;;5038736;28;51192;-48
2022/02/18 08:37:50;;;;;;;;;28.50;25.50;;;;;;;;5040473;28;52044;-48
2022/02/18 08:40:35;;;;;;;;;32.00;27.50;;;;;;;;5057855;28;51891;-49
2022/02/18 08:43:20;;;;;;;;;30.25;24.00;;;;;;;;5058766;28;51526;-46
2022/02/18 08:46:05;;;;;;;;;32.75;27.50;;;;;;;;5052265;28;51123;-48
2022/02/18 08:48:49;;;;;;;;;35.00;26.75;;;;;;;;5058574;28;51169;-46
2022/02/18 08:51:33;;;;;;;;;33.50;28.00;;;;;;;;5038442;28;51494;-48
2022/02/18 08:54:19;;;;;;;;;40.00;30.00;;;;;;;;5050568;28;51161;-47
2022/02/18 08:57:06;;;;;;;;;33.00;26.75;;;;;;;;5043977;28;51308;-46
2022/02/18 08:59:52;;;;;;;;;29.25;26.50;;;;;;;;5044202;28;52295;-48
2022/02/18 09:02:38;;;;;;;;;32.75;27.50;;;;;;;;5046401;28;51379;-47
2022/02/18 09:05:24;;;;;;;;;30.25;27.00;;;;;;;;5041107;28;51565;-47
2022/02/18 09:08:10;;;;;;;;;30.00;25.00;;;;;;;;5040209;28;51159;-49
2022/02/18 09:10:58;;;;;;;;;31.50;23.50;;;;;;;;5058563;28;51099;-46
2022/02/18 09:13:42;;;;;;;;;36.00;27.75;;;;;;;;5038987;28;51481;-48
2022/02/18 09:16:28;;;;;;;;;30.00;25.50;;;;;;;;5028689;28;51415;-49
2022/02/18 09:19:12;;;;;;;;;35.25;28.50;;;;;;;;5027036;28;51217;-53
2022/02/18 09:21:57;;;;;;;;;30.50;26.75;;;;;;;;5040164;28;51139;-50
2022/02/18 09:24:52;;;;;;;;;28.25;24.00;;;;;;;;5051209;28;51178;-52
2022/02/18 09:27:37;;;;;;;;;29.25;26.50;;;;;;;;5041970;28;51333;-52
2022/02/18 09:30:43;;;;;;;;;30.00;27.00;;;;;;;;5044495;28;51162;-52
2022/02/18 09:33:30;;;;;;;;;26.75;24.00;;;;;;;;5042076;28;51893;-52
2022/02/18 09:36:14;;;;;;;;;25.25;23.75;;;;;;;;5039950;28;52285;-49
2022/02/18 09:39:22;;;;;;;;;25.00;22.50;;;;;;;;5040137;28;51241;-52
2022/02/18 09:42:29;;;;;;;;;37.00;27.00;;;;;;;;5047779;28;51135;-50
2022/02/18 09:45:17;;;;;;;;;33.25;28.50;;;;;;;;5038261;28;51218;-49
2022/02/18 09:48:02;;;;;;;;;28.75;25.50;;;;;;;;5032772;28;51242;-53
2022/02/18 09:50:57;;;;;;;;;29.25;25.75;;;;;;;;5038347;28;51254;-52
2022/02/18 09:53:59;;;;;;;;;31.75;27.25;;;;;;;;5039272;28;51172;-53
2022/02/18 09:56:47;;;;;;;;;44.25;30.00;;;;;;;;5038863;28;51128;-54
2022/02/18 09:59:32;;;;;;;;;32.00;25.25;;;;;;;;5043127;28;51207;-55
2022/02/18 10:02:17;;;;;;;;;25.75;23.50;;;;;;;;5038574;28;51150;-51
2022/02/18 10:05:03;;;;;;;;;31.25;23.75;;;;;;;;5039913;28;51236;-51
2022/02/18 10:08:09;;;;;;;;;34.00;26.25;;;;;;;;5038803;28;51487;-53
2022/02/18 10:11:05;;;;;;;;;25.00;20.25;;;;;;;;5039853;28;52851;-51
2022/02/18 10:13:56;;;;;;;;;34.50;28.25;;;;;;;;5058057;28;51087;-54
2022/02/18 10:16:46;;;;;;;;;31.50;27.50;;;;;;;;5041751;28;51154;-54
2022/02/18 10:19:32;;;;;;;;;32.25;25.75;;;;;;;;5038777;28;51582;-50
2022/02/18 10:22:27;;;;;;;;;39.25;27.75;;;;;;;;5045462;28;51318;-53
2022/02/18 10:25:23;;;;;;;;;28.25;26.75;;;;;;;;5037970;28;52004;-56
2022/02/18 10:28:09;;;;;;;;;33.50;28.50;;;;;;;;5037226;28;51330;-52
2022/02/18 10:31:02;;;;;;;;;33.75;28.25;;;;;;;;5037455;28;51136;-53
2022/02/18 10:33:59;;;;;;;;;35.25;29.00;;;;;;;;5035217;28;51471;-55
2022/02/18 10:36:44;;;;;;;;;27.25;25.00;;;;;;;;5057754;28;51115;-56
2022/02/18 10:39:36;;;;;;;;;25.50;24.00;;;;;;;;5044423;28;51253;-55
2022/02/18 10:42:32;;;;;;;;;31.25;27.25;;;;;;;;5040682;28;51085;-55
2022/02/18 10:45:20;;;;;;;;;24.75;23.00;;;;;;;;5057747;28;51077;-51
2022/02/18 10:48:25;;;;;;;;;33.50;26.00;;;;;;;;5045693;28;51132;-56
2022/02/18 10:51:14;;;;;;;;;36.25;25.75;;;;;;;;5039961;28;51505;-51
2022/02/18 10:54:08;;;;;;;;;25.75;21.75;;;;;;;;5040060;28;51450;-52
2022/02/18 10:57:12;;;;;;;;;26.50;23.50;;;;;;;;5056222;28;51131;-55
2022/02/18 11:00:13;;;;;;;;;31.25;25.50;;;;;;;;5038574;28;51041;-54
2022/02/18 11:02:59;;;;;;;;;29.50;25.75;;;;;;;;5058324;28;51616;-48
2022/02/18 11:05:44;;;;;;;;;31.00;28.00;;;;;;;;5054464;28;51391;-55
2022/02/18 11:08:31;;;;;;;;;35.00;29.00;;;;;;;;5046427;28;51115;-56
2022/02/18 11:11:24;;;;;;;;;33.50;27.00;;;;;;;;5058370;28;51360;-56
2022/02/18 11:14:11;;;;;;;;;33.25;28.25;;;;;;;;5053411;28;51057;-52
2022/02/18 11:16:57;;;;;;;;;33.00;28.75;;;;;;;;5058319;28;51663;-56
2022/02/18 11:19:46;;;;;;;;;28.50;24.25;;;;;;;;5043605;28;51219;-53
2022/02/18 11:22:45;;;;;;;;;38.25;30.50;;;;;;;;5044982;28;51257;-52
2022/02/18 11:25:33;;;;;;;;;37.75;30.00;;;;;;;;5043984;28;51076;-55
2022/02/18 11:28:33;;;;;;;;;28.50;24.50;;;;;;;;5043325;28;51572;-57
2022/02/18 11:31:20;;;;;;;;;33.25;29.75;;;;;;;;5042597;28;51078;-53
2022/02/18 11:34:23;;;;;;;;;30.75;25.00;;;;;;;;5046123;28;51100;-50
2022/02/18 11:37:07;;;;;;;;;34.00;28.75;;;;;;;;5041873;28;51635;-52
2022/02/18 11:40:08;;;;;;;;;27.50;27.50;;;;;;;;5044269;28;51223;-52
2022/02/18 11:43:12;;;;;;;;;34.00;30.50;;;;;;;;5044753;28;51578;-52
2022/02/18 11:45:58;;;;;;;;;27.75;24.50;;;;;;;;5041616;28;51108;-52
2022/02/18 11:48:49;;;;;;;;;32.50;26.75;;;;;;;;5044567;28;51152;-53
2022/02/18 11:51:41;;;;;;;;;29.75;24.50;;;;;;;;5042462;28;51451;-56
2022/02/18 11:54:28;;;;;;;;;30.00;27.00;;;;;;;;5049908;28;51591;-51
2022/02/18 11:57:35;;;;;;;;;31.00;24.75;;;;;;;;5053371;28;51136;-52
2022/02/18 12:00:19;;;;;;;;;28.25;24.25;;;;;;;;5046900;28;51101;-51
2022/02/18 12:03:30;;;;;;;;;35.50;25.75;;;;;;;;5053954;28;51227;-50
2022/02/18 12:06:27;;;;;;;;;28.25;27.50;;;;;;;;5050847;28;51098;-54
2022/02/18 12:09:14;;;;;;;;;37.25;28.75;;;;;;;;5041145;28;51354;-53
2022/02/18 12:12:34;;;;;;;;;30.25;26.50;;;;;;;;5040766;28;51168;-50
2022/02/18 12:15:39;;;;;;;;;26.00;25.50;;;;;;;;4977313;28;51153;-53
2022/02/18 12:18:26;;;;;;;;;32.00;25.25;;;;;;;;5041913;28;51411;-51
2022/02/18 12:21:11;;;;;;;;;35.75;27.75;;;;;;;;5039727;28;51315;-53
2022/02/18 12:23:56;;;;;;;;;29.75;25.75;;;;;;;;5042794;28;51464;-55
2022/02/18 12:26:46;;;;;;;;;28.00;23.75;;;;;;;;5041172;28;51215;-52
2022/02/18 12:29:32;;;;;;;;;28.50;24.75;;;;;;;;5046669;28;52369;-49
2022/02/18 12:32:20;;;;;;;;;28.00;25.00;;;;;;;;5040642;28;51617;-50
2022/02/18 12:35:12;;;;;;;;;27.00;24.75;;;;;;;;5031118;28;51535;-51
2022/02/18 12:37:57;;;;;;;;;27.50;26.25;;;;;;;;5048403;28;51590;-53
2022/02/18 12:40:55;;;;;;;;;34.25;23.25;;;;;;;;5058966;28;51464;-51
2022/02/18 12:43:50;;;;;;;;;26.00;23.25;;;;;;;;5044478;28;51164;-49
2022/02/18 12:46:40;;;;;;;;;29.25;26.25;;;;;;;;5060113;28;51162;-50
2022/02/18 12:49:38;;;;;;;;;27.75;21.50;;;;;;;;5043400;28;51120;-51
2022/02/18 12:52:27;;;;;;;;;26.25;23.00;;;;;;;;5040473;28;51119;-51
2022/02/18 12:55:14;;;;;;;;;26.25;21.75;;;;;;;;5046349;28;51143;-51
2022/02/18 12:58:00;;;;;;;;;27.00;22.50;;;;;;;;5039725;28;51281;-50
2022/02/18 13:00:45;;;;;;;;;31.75;23.25;;;;;;;;5040094;28;51129;-52
2022/02/18 13:03:32;;;;;;;;;24.00;22.25;;;;;;;;5038920;28;51221;-54
2022/02/18 13:06:28;;;;;;;;;28.25;24.25;;;;;;;;5042752;28;51247;-51
2022/02/18 13:09:13;;;;;;;;;29.25;26.25;;;;;;;;5039429;28;51446;-51
2022/02/18 13:12:05;;;;;;;;;31.75;26.25;;;;;;;;5046212;28;51199;-55
2022/02/18 13:15:02;;;;;;;;;28.50;25.00;;;;;;;;5043796;28;51648;-52
2022/02/18 13:17:48;;;;;;;;;29.50;23.25;;;;;;;;5047427;28;51098;-52
2022/02/18 13:20:38;;;;;;;;;30.50;24.00;;;;;;;;5038511;28;51334;-51
2022/02/18 13:23:27;;;;;;;;;25.00;22.25;;;;;;;;5038535;28;51073;-51
2022/02/18 13:26:12;;;;;;;;;28.00;24.00;;;;;;;;5041421;28;51268;-52
2022/02/18 13:28:59;;;;;;;;;34.25;24.75;;;;;;;;5038362;28;51088;-53
2022/02/18 13:31:44;;;;;;;;;29.75;25.50;;;;;;;;5038323;28;51209;-50
2022/02/18 13:34:30;;;;;;;;;24.00;22.00;;;;;;;;5058373;28;51189;-52
2022/02/18 13:37:22;;;;;;;;;33.00;27.50;;;;;;;;5038811;28;51580;-49
2022/02/18 13:40:14;;;;;;;;;30.00;27.00;;;;;;;;5037627;28;52830;-50
2022/02/18 13:43:00;;;;;;;;;28.25;26.50;;;;;;;;5049832;28;52062;-50
2022/02/18 13:45:45;;;;;;;;;30.00;25.50;;;;;;;;5057845;28;51192;-49
2022/02/18 13:48:50;;;;;;;;;31.75;26.25;;;;;;;;5058118;28;51641;-51
2022/02/18 13:51:40;;;;;;;;;28.75;26.50;;;;;;;;5058131;28;51655;-52
2022/02/18 13:54:28;;;;;;;;;26.75;22.25;;;;;;;;5046207;28;51118;-55
2022/02/18 13:57:20;;;;;;;;;37.50;29.00;;;;;;;;5044788;28;51062;-52
2022/02/18 14:00:10;;;;;;;;;27.00;24.00;;;;;;;;5054346;28;51149;-55
2022/02/18 14:03:15;;;;;;;;;32.75;25.75;;;;;;;;5048107;28;51552;-52
2022/02/18 14:06:08;;;;;;;;;28.00;25.00;;;;;;;;5049807;28;51198;-51
2022/02/18 14:09:05;;;;;;;;;23.75;20.75;;;;;;;;5052720;28;51091;-47
2022/02/18 14:11:49;;;;;;;;;25.00;22.25;;;;;;;;5051857;28;51486;-50
2022/02/18 14:14:35;;;;;;;;;28.00;24.00;;;;;;;;5049547;28;52001;-51
2022/02/18 14:17:24;;;;;;;;;28.25;24.00;;;;;;;;5042659;28;51549;-52
2022/02/18 14:20:29;;;;;;;;;28.00;23.50;;;;;;;;5056243;28;51386;-52
2022/02/18 14:23:28;;;;;;;;;25.50;24.50;;;;;;;;5043351;28;51140;-51
2022/02/18 14:26:15;;;;;;;;;26.00;23.75;;;;;;;;5042011;28;51226;-47
2022/02/18 14:29:02;;;;;;;;;26.00;24.50;;;;;;;;5026814;28;51547;-47
2022/02/18 14:31:54;;;;;;;;;25.50;23.00;;;;;;;;5040004;28;51456;-49
2022/02/18 14:35:00;;;;;;;;;30.50;28.25;;;;;;;;5038037;28;51198;-51
2022/02/18 14:38:07;;;;;;;;;29.25;23.75;;;;;;;;5037130;28;51621;-51
2022/02/18 14:41:05;;;;;;;;;28.50;24.25;;;;;;;;5037984;28;51213;-48
2022/02/18 14:43:58;;;;;;;;;27.00;24.50;;;;;;;;5037250;28;51654;-54
2022/02/18 14:46:57;;;;;;;;;28.75;25.75;;;;;;;;5037999;28;51419;-51
2022/02/18 14:50:02;;;;;;;;;26.25;24.00;;;;;;;;5049743;28;51409;-49
2022/02/18 14:52:47;;;;;;;;;27.75;23.50;;;;;;;;5059100;28;51103;-50
2022/02/18 14:55:53;;;;;;;;;25.75;24.75;;;;;;;;5051593;28;50986;-46
2022/02/18 14:58:39;;;;;;;;;27.00;23.75;;;;;;;;5042732;28;51181;-52
2022/02/18 15:01:45;;;;;;;;;35.25;29.25;;;;;;;;5048658;28;51081;-54
2022/02/18 15:04:30;;;;;;;;;33.00;26.75;;;;;;;;5057157;28;51177;-48
2022/02/18 15:07:22;;;;;;;;;27.75;26.25;;;;;;;;5042434;28;51164;-50
2022/02/18 15:10:09;;;;;;;;;30.75;25.00;;;;;;;;5044505;28;51050;-49
2022/02/18 15:12:55;;;;;;;;;28.25;25.75;;;;;;;;5042443;28;51431;-49
2022/02/18 15:15:44;;;;;;;;;31.00;23.75;;;;;;;;5052163;28;51058;-52
2022/02/18 15:18:32;;;;;;;;;25.75;22.75;;;;;;;;5044426;28;51273;-54
2022/02/18 15:21:23;;;;;;;;;32.00;24.75;;;;;;;;5048591;28;51607;-51
2022/02/18 15:24:10;;;;;;;;;29.50;19.75;;;;;;;;5041874;28;51352;-51
2022/02/18 15:26:57;;;;;;;;;33.00;25.25;;;;;;;;5044917;28;51168;-52
2022/02/18 15:36:08;;;;;;;;;37.00;28.00;;;;;;;;5044622;28;51457;-50
2022/02/18 15:42:07;;;;;;;;;28.75;23.75;;;;;;;;5043256;28;51110;-47
2022/02/18 15:44:52;;;;;;;;;25.75;24.75;;;;;;;;5041866;28;51139;-47
2022/02/18 15:47:37;;;;;;;;;27.25;23.25;;;;;;;;5041819;28;51028;-51
2022/02/18 15:50:33;;;;;;;;;30.00;22.75;;;;;;;;5041611;28;51040;-54
2022/02/18 15:53:21;;;;;;;;;27.75;23.75;;;;;;;;5042115;28;51111;-54
2022/02/18 15:56:07;;;;;;;;;30.25;25.25;;;;;;;;5042218;28;51135;-51
2022/02/18 15:58:53;;;;;;;;;27.50;24.50;;;;;;;;5042373;28;51192;-52
2022/02/18 16:01:44;;;;;;;;;27.25;22.75;;;;;;;;5045883;28;51552;-51
2022/02/18 16:04:50;;;;;;;;;28.75;25.25;;;;;;;;5040381;28;51164;-52
2022/02/18 16:07:37;;;;;;;;;30.75;25.00;;;;;;;;5042044;28;51145;-52
2022/02/18 16:10:22;;;;;;;;;30.25;27.25;;;;;;;;5041221;28;51078;-50
2022/02/18 16:13:32;;;;;;;;;26.75;23.00;;;;;;;;5052236;28;51622;-54
2022/02/18 16:16:18;;;;;;;;;25.25;24.25;;;;;;;;5059086;28;51177;-55
2022/02/18 16:19:04;;;;;;;;;29.25;24.75;;;;;;;;5060111;28;51468;-53
2022/02/18 16:21:48;;;;;;;;;30.25;26.50;;;;;;;;5040651;28;51159;-50
2022/02/18 16:24:36;;;;;;;;;31.00;24.50;;;;;;;;5042413;28;51078;-53
2022/02/18 16:27:25;;;;;;;;;27.75;24.50;;;;;;;;5041282;28;51478;-55
2022/02/18 16:30:14;;;;;;;;;19.00;17.25;;;;;;;;5040724;28;51071;-52
2022/02/18 16:32:59;;;;;;;;;31.00;24.50;;;;;;;;5040740;28;51085;-56
2022/02/18 16:35:48;;;;;;;;;29.50;24.50;;;;;;;;5040621;28;51072;-51